Guymon Municipal Airport
KGUY : now visible

Airfield :











YOU CAN JOIN US ON...

 
LOGIN :

Register | Disclaimer

   EN    FR    IT 

 









Legend :    VFR   Marginal VFR   IFR   Intensive IFR   Very Intensive IFR
Visi :
Ceiling :
>= 8 km
>= 3000ft
5 to 8 km
1000 to 3000 ft
1500m to 5 km
500 to 1000 ft
800 to 1500m
200 to 500 ft
< 800m
< 200 ft
Symbols :   Thunderstorms  Fog  Heavy snow  Heavy precipitations  Wind > 20 kt






- Airport Elevation : 3123 ft


KGUY - Guymon Municipal

CURRENT METAR :
  • 090053Z AUTO 20012KT 10SM CLR 38/06 A2973 RMK AO2 SLP007 T03830056

EXPIRED METARs :
  • 082353Z AUTO 21014KT 10SM CLR 40/05 A2973 RMK AO2 SLP006 T04000050 10406 20356 56016
  • 082253Z AUTO 21016KT 10SM CLR 41/08 A2974 RMK AO2 SLP011 T04060083

TAF KGUY
Valid from the 09 at 00:00 until the 10 at 00:00 UTC


082340Z 0900/0924 17014KT P6SM SCT100
FM090900 21014KT P6SM SKC
FM091100 27011KT P6SM SKC
FM091400 34013KT P6SM FEW250
FM092000 03012KT P6SM SKC
KZKC FIR / North America



MET'MAP, your aeronautical weather chart ! - Copyright ORBIFLY December 2007 - Disclaimer

ORBIFLY MET'MAP TEAM :

Programming & Development : Alexandra Zaïnal
Concept & original design : Baudouin d'Aumeries
Assistance for programming : Marc-Olivier Méhu
Technical & hardware support : Manuel Goepfert

Contact : metmap@orbifly.com




SOURCES & CREDITS :

   NOAA       Earth
Advisory